createdAt,value
2023-02-09T00:01:25.977Z,100843.69
2023-02-09T00:03:52.597Z,100849.13
2023-02-09T00:06:23.302Z,100839.38
2023-02-09T00:08:59.873Z,100844.63
2023-02-09T00:11:50.080Z,100841.72
2023-02-09T00:14:22.087Z,100847.06
2023-02-09T00:17:07.560Z,100847.97
2023-02-09T00:19:43.068Z,100843.59
2023-02-09T00:22:09.507Z,100835.03
2023-02-09T00:24:47.780Z,100830.84
2023-02-09T00:27:14.572Z,100830.19
2023-02-09T00:29:41.467Z,100842.16
2023-02-09T00:32:10.252Z,100839.56
2023-02-09T00:34:40.417Z,100832.59
2023-02-09T00:37:07.341Z,100837.16
2023-02-09T00:39:41.634Z,100836.47
2023-02-09T00:42:13.632Z,100837.59
2023-02-09T00:44:40.405Z,100835.19
2023-02-09T00:47:08.762Z,100838.66
2023-02-09T00:49:40.281Z,100829.88
2023-02-09T00:52:09.580Z,100819.41
2023-02-09T00:54:41.840Z,100818.66
2023-02-09T00:57:13.878Z,100814.28
2023-02-09T00:59:46.958Z,100819.53
2023-02-09T01:02:14.109Z,100823.16
2023-02-09T01:04:41.062Z,100813.63
2023-02-09T01:07:10.436Z,100825.03
2023-02-09T01:09:39.248Z,100810.97
2023-02-09T01:12:13.727Z,100815.16
2023-02-09T01:14:40.844Z,100817.56
2023-02-09T01:17:07.861Z,100806.22
2023-02-09T01:22:19.646Z,100813.22
2023-02-09T01:24:53.851Z,100817.69
2023-02-09T01:27:20.954Z,100817.81
2023-02-09T01:29:50.655Z,100818.19
2023-02-09T01:32:22.422Z,100820.91
2023-02-09T01:35:02.028Z,100828.66
2023-02-09T01:37:28.662Z,100822.47
2023-02-09T01:39:55.048Z,100812.56
2023-02-09T01:42:22.109Z,100814.34
2023-02-09T01:45:13.924Z,100803.84
2023-02-09T01:47:47.184Z,100799.53
2023-02-09T01:50:14.792Z,100797.00
2023-02-09T01:52:42.950Z,100794.38
2023-02-09T01:55:13.758Z,100799.50
2023-02-09T01:57:45.677Z,100790.81
2023-02-09T02:00:25.150Z,100793.44
2023-02-09T02:03:00.732Z,100797.94
2023-02-09T02:05:28.877Z,100795.13
2023-02-09T02:08:04.472Z,100797.06
2023-02-09T02:10:31.405Z,100797.00
2023-02-09T02:12:58.018Z,100794.38
2023-02-09T02:15:30.382Z,100790.97
2023-02-09T02:18:17.437Z,100794.44
2023-02-09T02:21:16.376Z,100791.97
2023-02-09T02:23:58.076Z,100799.19
2023-02-09T02:27:01.984Z,100810.59
2023-02-09T02:29:56.156Z,100807.97
2023-02-09T02:32:35.033Z,100806.34
2023-02-09T02:35:09.212Z,100810.63
2023-02-09T02:38:17.815Z,100807.97
2023-02-09T02:40:56.263Z,100809.63
2023-02-09T02:43:51.248Z,100807.00
2023-02-09T02:46:39.951Z,100794.84
2023-02-09T02:49:23.849Z,100800.97
2023-02-09T02:51:55.247Z,100806.16
2023-02-09T02:54:27.867Z,100802.66
2023-02-09T02:57:05.967Z,100808.69
2023-02-09T02:59:44.373Z,100813.13
2023-02-09T03:02:19.980Z,100812.44
2023-02-09T03:04:50.200Z,100819.56
2023-02-09T03:07:18.552Z,100824.03
2023-02-09T03:09:53.186Z,100838.19
2023-02-09T03:12:58.661Z,100833.31
2023-02-09T03:15:32.883Z,100834.38
2023-02-09T03:18:30.334Z,100829.31
2023-02-09T03:21:02.933Z,100837.28
2023-02-09T03:23:42.185Z,100845.16
2023-02-09T03:26:15.970Z,100848.63
2023-02-09T03:28:46.576Z,100843.44
2023-02-09T03:31:13.936Z,100840.94
2023-02-09T03:33:41.629Z,100837.63
2023-02-09T03:36:19.928Z,100844.63
2023-02-09T03:38:46.619Z,100837.69
2023-02-09T03:41:12.990Z,100852.59
2023-02-09T03:43:58.698Z,100846.56
2023-02-09T03:46:25.260Z,100843.16
2023-02-09T03:48:52.173Z,100844.09
2023-02-09T03:51:18.684Z,100850.28
2023-02-09T03:53:46.790Z,100841.59
2023-02-09T03:56:13.181Z,100839.03
2023-02-09T03:58:39.587Z,100848.59
2023-02-09T04:01:08.721Z,100848.53
2023-02-09T04:03:36.782Z,100832.88
2023-02-09T04:06:04.453Z,100833.75
2023-02-09T04:08:31.156Z,100831.19
2023-02-09T04:10:57.817Z,100833.81
2023-02-09T04:13:25.486Z,100827.72
2023-02-09T04:15:52.704Z,100832.03
2023-02-09T04:18:19.650Z,100826.81
2023-02-09T04:20:46.505Z,100833.84
2023-02-09T04:23:13.816Z,100828.66
2023-02-09T04:25:40.198Z,100828.66
2023-02-09T04:28:07.754Z,100826.06
2023-02-09T04:30:34.745Z,100827.88
2023-02-09T04:33:01.194Z,100827.88
2023-02-09T04:35:27.790Z,100829.59
2023-02-09T04:37:54.232Z,100827.88
2023-02-09T04:40:20.786Z,100837.44
2023-02-09T04:42:47.783Z,100839.19
2023-02-09T04:45:14.325Z,100838.28
2023-02-09T04:47:40.958Z,100829.53
2023-02-09T04:50:07.524Z,100834.81
2023-02-09T04:52:34.158Z,100832.19
2023-02-09T04:55:00.927Z,100829.56
2023-02-09T04:57:46.224Z,100829.59
2023-02-09T05:00:13.730Z,100828.72
2023-02-09T05:02:40.109Z,100813.88
2023-02-09T05:05:07.147Z,100821.66
2023-02-09T05:07:33.501Z,100814.72
2023-02-09T05:10:00.003Z,100813.88
2023-02-09T05:12:26.394Z,100813.00
2023-02-09T05:14:52.986Z,100805.13
2023-02-09T05:17:21.072Z,100798.13
2023-02-09T05:19:48.909Z,100799.78
2023-02-09T05:22:15.658Z,100802.22
2023-02-09T05:24:42.446Z,100793.41
2023-02-09T05:27:08.858Z,100796.75
2023-02-09T05:29:35.769Z,100794.03
2023-02-09T05:32:02.257Z,100789.56
2023-02-09T05:34:29.223Z,100783.50
2023-02-09T05:36:55.656Z,100785.31
2023-02-09T05:39:22.666Z,100784.31
2023-02-09T05:42:09.035Z,100783.41
2023-02-09T05:44:35.848Z,100779.09
2023-02-09T05:47:02.291Z,100774.72
2023-02-09T05:49:29.153Z,100771.97
2023-02-09T05:51:56.005Z,100777.22
2023-02-09T05:54:22.448Z,100767.56
2023-02-09T05:56:49.041Z,100775.41
2023-02-09T05:59:15.431Z,100762.31
2023-02-09T06:01:41.961Z,100766.66
2023-02-09T06:04:09.305Z,100764.03
2023-02-09T06:06:36.399Z,100763.22
2023-02-09T06:09:03.788Z,100763.16
2023-02-09T06:11:30.238Z,100754.28
2023-02-09T06:13:57.096Z,100755.19
2023-02-09T06:16:23.605Z,100746.41
2023-02-09T06:18:50.092Z,100743.72
2023-02-09T06:21:16.621Z,100741.03
2023-02-09T06:23:43.386Z,100753.31
2023-02-09T06:26:12.911Z,100749.88
2023-02-09T06:28:39.533Z,100742.00
2023-02-09T06:31:07.182Z,100745.50
2023-02-09T06:33:35.253Z,100748.94
2023-02-09T06:36:03.212Z,100756.88
2023-02-09T06:38:34.698Z,100763.78
2023-02-09T06:41:01.485Z,100773.44
2023-02-09T06:43:28.001Z,100776.91
2023-02-09T06:45:54.930Z,100783.13
2023-02-09T06:48:21.323Z,100785.72
2023-02-09T06:50:48.255Z,100785.69
2023-02-09T06:53:16.048Z,100792.78
2023-02-09T06:55:42.979Z,100794.56
2023-02-09T06:58:09.445Z,100798.88
2023-02-09T07:00:35.794Z,100804.19
2023-02-09T07:03:03.315Z,100805.03
2023-02-09T07:05:31.364Z,100800.66
2023-02-09T07:07:57.881Z,100802.44
2023-02-09T07:10:25.005Z,100802.41
2023-02-09T07:12:51.699Z,100795.38
2023-02-09T07:15:18.282Z,100797.22
2023-02-09T07:17:44.769Z,100797.97
2023-02-09T07:20:11.762Z,100780.53
2023-02-09T07:22:38.594Z,100791.78
2023-02-09T07:25:05.713Z,100791.81
2023-02-09T07:27:32.154Z,100783.09
2023-02-09T07:30:00.931Z,100792.63
2023-02-09T07:32:27.774Z,100784.69
2023-02-09T07:34:54.304Z,100782.09
2023-02-09T07:37:20.756Z,100786.34
2023-02-09T07:39:47.467Z,100788.03
2023-02-09T07:42:14.288Z,100786.41
2023-02-09T07:44:40.704Z,100791.66
2023-02-09T07:47:07.388Z,100803.00
2023-02-09T07:49:36.883Z,100811.75
2023-02-09T07:52:04.378Z,100817.81
2023-02-09T07:54:30.849Z,100816.03
2023-02-09T07:56:57.526Z,100798.50
2023-02-09T07:59:24.122Z,100791.41
2023-02-09T08:01:51.920Z,100778.31
2023-02-09T08:04:18.379Z,100773.97
2023-02-09T08:06:46.870Z,100770.41
2023-02-09T08:09:16.591Z,100765.16
2023-02-09T08:12:02.900Z,100773.72
2023-02-09T08:14:36.671Z,100781.53
2023-02-09T08:17:20.741Z,100787.56
2023-02-09T08:19:58.994Z,100796.25
2023-02-09T08:22:31.456Z,100805.78
2023-02-09T08:24:59.186Z,100806.59
2023-02-09T08:27:25.996Z,100823.03
2023-02-09T08:29:52.995Z,100819.50
2023-02-09T08:32:19.451Z,100832.50
2023-02-09T08:34:46.163Z,100829.53
2023-02-09T08:37:12.696Z,100824.34
2023-02-09T08:39:39.217Z,100811.16
2023-02-09T08:42:05.935Z,100803.28
2023-02-09T08:44:32.526Z,100801.34
2023-02-09T08:46:59.129Z,100800.34
2023-02-09T08:49:25.879Z,100798.41
2023-02-09T08:51:52.296Z,100788.88
2023-02-09T08:54:18.674Z,100793.09
2023-02-09T08:56:45.766Z,100805.22
2023-02-09T08:59:12.547Z,100798.88
2023-02-09T09:01:40.369Z,100794.41
2023-02-09T09:04:07.993Z,100782.81
2023-02-09T09:06:34.541Z,100786.25
2023-02-09T09:09:01.097Z,100787.13
2023-02-09T09:11:28.550Z,100789.66
2023-02-09T09:13:55.565Z,100797.41
2023-02-09T09:16:22.911Z,100821.91
2023-02-09T09:18:50.214Z,100813.94
2023-02-09T09:21:18.667Z,100825.22
2023-02-09T09:23:46.476Z,100833.84
2023-02-09T09:26:13.513Z,100832.84
2023-02-09T09:28:39.946Z,100839.75
2023-02-09T09:31:12.045Z,100845.63
2023-02-09T09:33:38.965Z,100847.34
2023-02-09T09:36:06.979Z,100846.47
2023-02-09T09:38:35.241Z,100846.97
2023-02-09T09:41:03.452Z,100852.16
2023-02-09T09:43:40.065Z,100845.00
2023-02-09T09:46:12.038Z,100848.31
2023-02-09T09:48:48.643Z,100843.81
2023-02-09T09:51:23.344Z,100849.56
2023-02-09T09:53:53.629Z,100844.16
2023-02-09T09:56:26.846Z,100850.03
2023-02-09T09:58:53.697Z,100840.09
2023-02-09T10:01:21.487Z,100839.19
2023-02-09T10:03:48.176Z,100837.84
2023-02-09T10:06:18.192Z,100851.94
2023-02-09T10:08:52.643Z,100865.75
2023-02-09T10:11:27.990Z,100874.41
2023-02-09T10:13:56.843Z,100875.78
2023-02-09T10:16:34.538Z,100874.69
2023-02-09T10:19:03.922Z,100878.38
2023-02-09T10:21:33.458Z,100884.38
2023-02-09T10:24:00.276Z,100875.38
2023-02-09T10:26:30.992Z,100868.13
2023-02-09T10:29:21.331Z,100864.91
2023-02-09T10:31:57.658Z,100870.91
2023-02-09T10:34:42.615Z,100874.28
2023-02-09T10:37:35.983Z,100866.75
2023-02-09T10:40:23.693Z,100867.47
2023-02-09T10:43:02.890Z,100864.75
2023-02-09T10:45:42.403Z,100861.47
2023-02-09T10:48:12.247Z,100858.53
2023-02-09T10:51:05.183Z,100847.84
2023-02-09T10:53:33.512Z,100849.50
2023-02-09T10:56:16.972Z,100854.41
2023-02-09T10:58:51.592Z,100840.78
2023-02-09T11:01:21.463Z,100860.28
2023-02-09T11:03:57.740Z,100857.88
2023-02-09T11:06:24.197Z,100848.34
2023-02-09T11:09:14.264Z,100847.25
2023-02-09T11:11:43.454Z,100858.53
2023-02-09T11:14:16.571Z,100847.50
2023-02-09T11:16:53.667Z,100849.06
2023-02-09T11:19:31.085Z,100850.69
2023-02-09T11:22:54.636Z,100847.88
2023-02-09T11:25:39.807Z,100844.59
2023-02-09T11:28:30.981Z,100829.59
2023-02-09T11:31:00.830Z,100829.50
2023-02-09T11:33:46.837Z,100825.31
2023-02-09T11:36:22.523Z,100829.41
2023-02-09T11:38:58.277Z,100823.88
2023-02-09T11:41:48.772Z,100821.41
2023-02-09T11:44:35.722Z,100819.16
2023-02-09T11:47:05.986Z,100821.59
2023-02-09T11:49:45.031Z,100822.78
2023-02-09T11:52:21.957Z,100808.44
2023-02-09T11:54:52.683Z,100808.19
2023-02-09T11:57:40.704Z,100807.53
2023-02-09T12:00:19.733Z,100801.03
2023-02-09T12:02:58.554Z,100790.19
2023-02-09T12:05:25.961Z,100792.66
2023-02-09T12:08:07.503Z,100794.16
2023-02-09T12:10:49.141Z,100789.06
2023-02-09T12:13:27.520Z,100783.47
2023-02-09T12:15:57.952Z,100772.91
2023-02-09T12:18:28.492Z,100777.72
2023-02-09T12:21:01.304Z,100771.34
2023-02-09T12:23:27.631Z,100753.13
2023-02-09T12:26:00.905Z,100767.06
2023-02-09T12:28:27.331Z,100745.75
2023-02-09T12:30:54.369Z,100748.59
2023-02-09T12:33:23.956Z,100750.66
2023-02-09T12:36:09.882Z,100746.00
2023-02-09T12:39:04.058Z,100743.84
2023-02-09T12:41:51.224Z,100757.72
2023-02-09T12:44:18.416Z,100754.28
2023-02-09T12:46:45.560Z,100740.16
2023-02-09T12:49:12.405Z,100749.53
2023-02-09T12:51:53.141Z,100747.53
2023-02-09T12:54:49.248Z,100749.47
2023-02-09T12:57:15.592Z,100762.88
2023-02-09T13:00:00.025Z,100759.97
2023-02-09T13:02:36.018Z,100765.38
2023-02-09T13:05:27.512Z,100762.06
2023-02-09T13:08:18.505Z,100760.06
2023-02-09T13:10:59.086Z,100758.06
2023-02-09T13:13:38.021Z,100763.25
2023-02-09T13:16:04.358Z,100762.31
2023-02-09T13:18:52.054Z,100753.28
2023-02-09T13:21:45.257Z,100738.66
2023-02-09T13:24:32.933Z,100734.38
2023-02-09T13:27:00.137Z,100720.03
2023-02-09T13:29:33.274Z,100727.06
2023-02-09T13:32:13.099Z,100728.81
2023-02-09T13:35:07.730Z,100741.31
2023-02-09T13:37:54.249Z,100738.53
2023-02-09T13:40:25.681Z,100737.16
2023-02-09T13:42:54.121Z,100736.34
2023-02-09T13:45:24.300Z,100729.25
2023-02-09T13:47:51.380Z,100739.97
2023-02-09T13:50:23.232Z,100741.66
2023-02-09T13:52:52.980Z,100734.50
2023-02-09T13:55:23.856Z,100738.28
2023-02-09T13:58:00.623Z,100741.19
2023-02-09T14:00:40.114Z,100746.72
2023-02-09T14:03:14.738Z,100737.38
2023-02-09T14:05:43.761Z,100737.94
2023-02-09T14:08:13.303Z,100738.81
2023-02-09T14:10:43.262Z,100747.44
2023-02-09T14:13:23.110Z,100741.91
2023-02-09T14:16:09.505Z,100740.25
2023-02-09T14:18:47.105Z,100741.97
2023-02-09T14:21:17.828Z,100743.53
2023-02-09T14:24:18.724Z,100746.56
2023-02-09T14:26:47.270Z,100748.72
2023-02-09T14:29:29.284Z,100753.91
2023-02-09T14:32:01.644Z,100744.31
2023-02-09T14:34:33.179Z,100749.00
2023-02-09T14:37:03.817Z,100749.28
2023-02-09T14:39:31.449Z,100738.72
2023-02-09T14:42:02.711Z,100753.66
2023-02-09T14:44:30.415Z,100754.41
2023-02-09T14:46:59.734Z,100758.84
2023-02-09T14:49:27.638Z,100748.25
2023-02-09T14:52:15.179Z,100751.50
2023-02-09T14:54:50.201Z,100743.00
2023-02-09T14:57:17.163Z,100744.09
2023-02-09T14:59:43.999Z,100737.03
2023-02-09T15:02:19.220Z,100736.31
2023-02-09T15:04:46.771Z,100738.31
2023-02-09T15:07:19.226Z,100749.50
2023-02-09T15:09:47.002Z,100747.66
2023-02-09T15:12:23.286Z,100745.47
2023-02-09T15:14:51.189Z,100748.19
2023-02-09T15:17:21.316Z,100745.75
2023-02-09T15:19:47.951Z,100754.16
2023-02-09T15:25:00.529Z,100757.81
2023-02-09T15:27:35.094Z,100761.66
2023-02-09T15:30:04.557Z,100762.97
2023-02-09T15:32:31.550Z,100762.66
2023-02-09T15:34:58.279Z,100762.09
2023-02-09T15:37:28.742Z,100774.03
2023-02-09T15:39:59.237Z,100765.41
2023-02-09T15:42:44.279Z,100779.81
2023-02-09T15:45:35.595Z,100779.38
2023-02-09T15:48:02.401Z,100768.09
2023-02-09T15:50:30.108Z,100773.66
2023-02-09T15:52:58.052Z,100777.63
2023-02-09T15:55:27.061Z,100773.75
2023-02-09T15:57:54.836Z,100781.31
2023-02-09T16:00:27.760Z,100779.13
2023-02-09T16:02:55.883Z,100787.13
2023-02-09T16:05:23.094Z,100795.66
2023-02-09T16:07:52.601Z,100795.19
2023-02-09T16:10:29.282Z,100801.63
2023-02-09T16:12:57.051Z,100796.63
2023-02-09T16:15:27.692Z,100797.34
2023-02-09T16:17:54.143Z,100803.09
2023-02-09T16:20:23.715Z,100808.94
2023-02-09T16:22:54.405Z,100803.09
2023-02-09T16:25:24.665Z,100802.53
2023-02-09T16:27:52.596Z,100805.25
2023-02-09T16:30:23.135Z,100819.59
2023-02-09T16:32:50.509Z,100809.31
2023-02-09T16:35:18.577Z,100819.31
2023-02-09T16:37:47.427Z,100820.31
2023-02-09T16:40:25.015Z,100818.22
2023-02-09T16:42:52.355Z,100834.34
2023-02-09T16:45:22.918Z,100846.84
2023-02-09T16:47:52.970Z,100851.66
2023-02-09T16:50:22.708Z,100856.34
2023-02-09T16:52:52.461Z,100851.28
2023-02-09T16:55:33.102Z,100858.47
2023-02-09T16:58:02.185Z,100860.38
2023-02-09T17:00:31.902Z,100876.53
2023-02-09T17:03:14.010Z,100870.63
2023-02-09T17:05:43.518Z,100872.53
2023-02-09T17:08:23.356Z,100883.31
2023-02-09T17:10:52.221Z,100876.28
2023-02-09T17:13:21.932Z,100878.13
2023-02-09T17:15:51.828Z,100879.06
2023-02-09T17:18:24.013Z,100872.97
2023-02-09T17:20:55.183Z,100884.72
2023-02-09T17:23:25.248Z,100892.66
2023-02-09T17:25:55.078Z,100889.19
2023-02-09T17:28:23.942Z,100897.22
2023-02-09T17:30:55.412Z,100891.16
2023-02-09T17:33:25.154Z,100894.91
2023-02-09T17:36:24.251Z,100898.59
2023-02-09T17:38:44.782Z,100907.16
2023-02-09T17:41:32.673Z,100910.78
2023-02-09T17:44:26.417Z,100910.91
2023-02-09T17:46:58.335Z,100925.00
2023-02-09T17:49:25.284Z,100924.25
2023-02-09T17:51:52.848Z,100928.72
2023-02-09T17:54:20.532Z,100932.31
2023-02-09T17:56:47.794Z,100938.69
2023-02-09T17:59:14.741Z,100938.00
2023-02-09T18:01:45.112Z,100947.00
2023-02-09T18:04:17.668Z,100962.06
2023-02-09T18:06:44.134Z,100956.81
2023-02-09T18:09:13.497Z,100952.50
2023-02-09T18:11:56.580Z,100968.34
2023-02-09T18:14:25.243Z,100981.53
2023-02-09T18:16:53.447Z,100985.13
2023-02-09T18:19:20.206Z,100993.91
2023-02-09T18:21:49.744Z,100994.94
2023-02-09T18:24:17.147Z,100995.03
2023-02-09T18:26:44.148Z,100991.59
2023-02-09T18:29:10.637Z,100991.66
2023-02-09T18:31:37.789Z,101005.00
2023-02-09T18:34:04.708Z,101003.31
2023-02-09T18:36:33.481Z,101000.75
2023-02-09T18:39:00.127Z,101000.84
2023-02-09T18:41:27.107Z,100999.16
2023-02-09T18:43:54.557Z,101001.81
2023-02-09T18:46:24.591Z,100997.47
2023-02-09T18:48:51.621Z,100993.94
2023-02-09T18:51:18.322Z,101001.91
2023-02-09T18:53:44.765Z,101008.13
2023-02-09T18:56:20.823Z,101011.63
2023-02-09T18:58:49.642Z,101015.19
2023-02-09T19:01:18.815Z,101017.03
2023-02-09T19:03:45.223Z,101010.09
2023-02-09T19:06:12.678Z,101021.56
2023-02-09T19:08:40.158Z,101030.44
2023-02-09T19:11:07.544Z,101034.81
2023-02-09T19:13:35.617Z,101031.41
2023-02-09T19:16:02.635Z,101028.81
2023-02-09T19:18:29.387Z,101027.13
2023-02-09T19:20:56.009Z,101028.97
2023-02-09T19:23:24.599Z,101034.38
2023-02-09T19:26:02.598Z,101033.44
2023-02-09T19:28:29.184Z,101037.00
2023-02-09T19:30:55.946Z,101039.66
2023-02-09T19:33:24.021Z,101038.75
2023-02-09T19:35:58.068Z,101038.88
2023-02-09T19:38:26.379Z,101036.25
2023-02-09T19:41:08.590Z,101042.34
2023-02-09T19:43:36.360Z,101049.44
2023-02-09T19:46:04.836Z,101056.50
2023-02-09T19:48:31.841Z,101048.59
2023-02-09T19:50:59.586Z,101053.88
2023-02-09T19:53:26.618Z,101062.47
2023-02-09T19:55:54.007Z,101061.56
2023-02-09T19:58:21.722Z,101072.09
2023-02-09T20:00:52.492Z,101075.69
2023-02-09T20:03:19.191Z,101068.72
2023-02-09T20:05:46.341Z,101079.19
2023-02-09T20:08:16.824Z,101071.28
2023-02-09T20:10:44.276Z,101062.63
2023-02-09T20:13:13.201Z,101071.38
2023-02-09T20:15:41.666Z,101064.38
2023-02-09T20:18:08.765Z,101056.59
2023-02-09T20:20:35.397Z,101059.28
2023-02-09T20:23:02.026Z,101054.13
2023-02-09T20:25:28.785Z,101056.75
2023-02-09T20:27:55.613Z,101056.72
2023-02-09T20:30:23.204Z,101057.59
2023-02-09T20:32:49.583Z,101052.38
2023-02-09T20:35:16.339Z,101053.22
2023-02-09T20:37:43.346Z,101051.38
2023-02-09T20:40:11.326Z,101053.97
2023-02-09T20:42:56.986Z,101058.31
2023-02-09T20:45:42.978Z,101070.59
2023-02-09T20:48:09.479Z,101074.97
2023-02-09T20:50:36.239Z,101081.00
2023-02-09T20:53:03.118Z,101081.81
2023-02-09T20:55:30.244Z,101091.41
2023-02-09T20:57:57.046Z,101087.84
2023-02-09T21:00:24.000Z,101098.34
2023-02-09T21:02:50.935Z,101096.56
2023-02-09T21:05:17.393Z,101097.41
2023-02-09T21:07:43.956Z,101104.28
2023-02-09T21:10:12.852Z,101108.53
2023-02-09T21:12:39.353Z,101104.09
2023-02-09T21:15:06.710Z,101107.56
2023-02-09T21:17:33.269Z,101113.63
2023-02-09T21:20:00.626Z,101101.28
2023-02-09T21:22:27.004Z,101095.00
2023-02-09T21:24:53.835Z,101086.09
2023-02-09T21:27:20.550Z,101093.00
2023-02-09T21:29:47.046Z,101094.69
2023-02-09T21:32:13.612Z,101105.94
2023-02-09T21:34:40.055Z,101096.22
2023-02-09T21:37:10.089Z,101104.91
2023-02-09T21:39:36.625Z,101096.09
2023-02-09T21:42:22.421Z,101088.16
2023-02-09T21:44:48.991Z,101092.47
2023-02-09T21:47:15.955Z,101097.69
2023-02-09T21:49:42.706Z,101096.72
2023-02-09T21:52:09.618Z,101098.50
2023-02-09T21:54:36.159Z,101094.91
2023-02-09T21:57:03.619Z,101101.91
2023-02-09T21:59:30.780Z,101101.00
2023-02-09T22:01:57.449Z,101093.06
2023-02-09T22:04:24.023Z,101098.28
2023-02-09T22:06:50.561Z,101104.41
2023-02-09T22:09:17.107Z,101112.34
2023-02-09T22:11:43.488Z,101107.84
2023-02-09T22:14:10.121Z,101101.75
2023-02-09T22:16:36.556Z,101103.50
2023-02-09T22:19:04.586Z,101106.00
2023-02-09T22:21:31.793Z,101104.03
2023-02-09T22:23:58.284Z,101104.69
2023-02-09T22:26:25.054Z,101107.22
2023-02-09T22:28:51.574Z,101102.78
2023-02-09T22:31:20.324Z,101103.53
2023-02-09T22:33:53.425Z,101107.03
2023-02-09T22:36:21.310Z,101105.22
2023-02-09T22:38:48.389Z,101106.91
2023-02-09T22:41:24.166Z,101105.09
2023-02-09T22:43:56.513Z,101109.47
2023-02-09T22:46:29.607Z,101116.56
2023-02-09T22:48:59.045Z,101110.44
2023-02-09T22:51:28.285Z,101114.81
2023-02-09T22:53:59.498Z,101107.78
2023-02-09T22:56:27.944Z,101112.09
2023-02-09T22:58:56.555Z,101107.63
2023-02-09T23:01:24.355Z,101119.84
2023-02-09T23:03:51.796Z,101121.50
2023-02-09T23:06:21.511Z,101126.69
2023-02-09T23:08:48.036Z,101125.72
2023-02-09T23:11:17.361Z,101123.06
2023-02-09T23:13:44.396Z,101123.00
2023-02-09T23:16:18.893Z,101131.75
2023-02-09T23:18:50.073Z,101130.81
2023-02-09T23:21:18.260Z,101136.84
2023-02-09T23:23:45.072Z,101140.25
2023-02-09T23:26:14.719Z,101137.50
2023-02-09T23:28:41.186Z,101138.25
2023-02-09T23:31:11.454Z,101134.53
2023-02-09T23:33:39.015Z,101143.34
2023-02-09T23:36:06.827Z,101138.94
2023-02-09T23:38:33.594Z,101138.00
2023-02-09T23:41:00.006Z,101131.00
2023-02-09T23:43:26.843Z,101132.66
2023-02-09T23:45:53.560Z,101134.34
2023-02-09T23:48:20.585Z,101136.81
2023-02-09T23:50:47.107Z,101144.59
2023-02-09T23:53:15.154Z,101145.44
2023-02-09T23:55:42.444Z,101140.91
2023-02-09T23:58:08.825Z,101140.00
